Time;durP1;ratioP1;P1;durP2;ratioP2;P2;SDS_P1;SDS_P2;PMS_P1;PMS_P2;Temp;Humidity;BMP_temperature;BMP_pressure;BME280_temperature;BME280_humidity;BME280_pressure;Samples;Min_cycle;Max_cycle;Signal;HPM_P1;HPM_P2
2023/06/15 00:02:18;;;;;;;;;5.50;5.50;;;;;14.94;50.04;100114.41;5096528;28;8847;-59
2023/06/15 00:04:46;;;;;;;;;6.00;6.00;;;;;14.93;50.05;100110.88;5096675;28;8817;-59
2023/06/15 00:07:14;;;;;;;;;8.00;7.50;;;;;14.93;50.24;100113.56;5095706;28;8837;-57
2023/06/15 00:09:42;;;;;;;;;6.50;6.00;;;;;14.90;49.79;100104.94;5096428;28;8829;-57
2023/06/15 00:12:10;;;;;;;;;4.00;4.00;;;;;14.84;49.99;100113.56;5096760;28;8841;-58
2023/06/15 00:14:38;;;;;;;;;8.50;7.00;;;;;14.77;50.31;100104.41;5096754;28;8845;-59
2023/06/15 00:17:08;;;;;;;;;8.25;8.25;;;;;14.70;50.34;100117.56;5096955;28;8837;-57
2023/06/15 00:19:36;;;;;;;;;6.50;5.75;;;;;14.61;50.10;100128.28;5096939;28;8844;-59
2023/06/15 00:22:04;;;;;;;;;8.00;7.00;;;;;14.51;50.54;100116.75;5096700;28;8865;-59
2023/06/15 00:24:32;;;;;;;;;9.00;7.00;;;;;14.44;50.60;100126.34;5096834;28;8825;-58
2023/06/15 00:27:00;;;;;;;;;3.75;3.75;;;;;14.38;50.41;100116.19;5096472;28;8874;-58
2023/06/15 00:29:27;;;;;;;;;6.00;6.00;;;;;14.33;51.04;100115.78;5095587;28;8832;-59
2023/06/15 00:31:55;;;;;;;;;9.25;8.50;;;;;14.33;50.87;100113.09;5096526;28;8862;-59
2023/06/15 00:34:23;;;;;;;;;6.75;6.75;;;;;14.34;50.73;100120.16;5096269;28;8837;-58
2023/06/15 00:36:51;;;;;;;;;6.00;6.00;;;;;14.34;50.63;100115.63;5096660;28;8833;-60
2023/06/15 00:39:19;;;;;;;;;7.50;6.75;;;;;14.33;50.48;100118.44;5096323;28;8825;-59
2023/06/15 00:41:47;;;;;;;;;10.00;9.00;;;;;14.32;50.89;100119.41;5096333;28;8829;-58
2023/06/15 00:44:14;;;;;;;;;7.50;6.75;;;;;14.29;50.50;100125.94;5096292;28;8821;-57
2023/06/15 00:46:42;;;;;;;;;8.25;7.00;;;;;14.28;50.63;100134.09;5095527;28;8848;-59
2023/06/15 00:49:10;;;;;;;;;9.50;9.00;;;;;14.27;50.47;100132.41;5096202;28;8865;-58
2023/06/15 00:51:38;;;;;;;;;6.50;6.50;;;;;14.23;50.86;100129.16;5096093;28;8845;-58
2023/06/15 00:54:07;;;;;;;;;10.00;9.00;;;;;14.22;51.10;100130.16;5096266;28;8950;-59
2023/06/15 00:56:34;;;;;;;;;9.00;9.00;;;;;14.22;51.01;100131.97;5096511;28;8848;-58
2023/06/15 00:59:02;;;;;;;;;7.50;6.25;;;;;14.19;51.07;100138.44;5095881;28;9557;-59
2023/06/15 01:01:30;;;;;;;;;8.25;8.25;;;;;14.17;51.10;100132.34;5095826;28;8845;-59
2023/06/15 01:03:59;;;;;;;;;8.50;8.00;;;;;14.17;51.13;100123.47;5096200;28;8951;-58
2023/06/15 01:06:31;;;;;;;;;7.50;6.25;;;;;14.15;51.34;100130.81;5096191;28;8825;-59
2023/06/15 01:08:58;;;;;;;;;6.75;6.00;;;;;14.14;51.15;100134.47;5096122;28;8872;-59
2023/06/15 01:11:26;;;;;;;;;7.00;6.00;;;;;14.12;51.42;100131.94;5095283;28;8870;-59
2023/06/15 01:13:57;;;;;;;;;8.50;8.50;;;;;14.11;51.30;100134.75;5095830;28;8837;-59
2023/06/15 01:16:25;;;;;;;;;7.00;6.25;;;;;14.06;51.59;100132.50;5095928;28;8844;-59
2023/06/15 01:18:56;;;;;;;;;7.00;6.25;;;;;13.99;51.40;100131.38;5095685;28;8845;-60
2023/06/15 01:21:24;;;;;;;;;8.00;8.00;;;;;13.91;52.05;100135.72;5096044;28;8829;-58
2023/06/15 01:23:51;;;;;;;;;5.50;3.75;;;;;13.83;51.86;100131.03;5095672;28;8855;-59
2023/06/15 01:26:20;;;;;;;;;7.00;7.00;;;;;13.80;51.91;100133.13;5095871;28;8825;-59
2023/06/15 01:28:49;;;;;;;;;7.00;7.00;;;;;13.78;52.14;100127.09;5095221;28;8859;-59
2023/06/15 01:31:17;;;;;;;;;6.75;5.50;;;;;13.74;52.31;100129.19;5095780;28;8951;-59
2023/06/15 01:33:45;;;;;;;;;6.25;6.25;;;;;13.73;52.18;100134.69;5095431;28;8833;-59
2023/06/15 01:36:12;;;;;;;;;10.25;8.75;;;;;13.70;51.81;100137.63;5095648;28;8841;-59
2023/06/15 01:38:41;;;;;;;;;7.00;7.00;;;;;13.66;52.16;100133.56;5095846;28;8857;-59
2023/06/15 01:41:08;;;;;;;;;6.75;6.50;;;;;13.65;52.80;100134.50;5099081;28;8821;-58
2023/06/15 01:43:36;;;;;;;;;6.00;6.00;;;;;13.62;52.81;100137.47;5098491;28;8867;-59
2023/06/15 01:46:04;;;;;;;;;4.00;4.00;;;;;13.57;52.58;100134.34;5098600;28;8857;-57
2023/06/15 01:48:31;;;;;;;;;4.50;3.50;;;;;13.52;53.02;100137.44;5099095;28;8837;-59
2023/06/15 01:51:00;;;;;;;;;6.00;6.00;;;;;13.49;52.53;100135.03;5099781;28;8856;-58
2023/06/15 01:53:27;;;;;;;;;6.00;4.00;;;;;13.43;52.85;100138.25;5099746;28;8833;-57
2023/06/15 01:55:55;;;;;;;;;6.25;5.50;;;;;13.40;52.93;100135.00;5099238;28;8845;-58
2023/06/15 01:58:23;;;;;;;;;6.75;6.00;;;;;13.38;53.20;100136.97;5099551;28;8839;-58
2023/06/15 02:00:51;;;;;;;;;7.00;6.50;;;;;13.36;52.58;100138.94;5099573;28;8841;-58
2023/06/15 02:03:19;;;;;;;;;5.00;5.00;;;;;13.32;52.95;100135.69;5099536;28;8829;-59
2023/06/15 02:05:46;;;;;;;;;6.75;6.75;;;;;13.30;52.93;100140.31;5099350;28;8921;-57
2023/06/15 02:08:14;;;;;;;;;6.25;6.00;;;;;13.27;53.24;100139.72;5098654;28;8845;-58
2023/06/15 02:10:42;;;;;;;;;9.00;7.00;;;;;13.26;52.92;100140.69;5099761;28;9533;-58
2023/06/15 02:13:09;;;;;;;;;9.50;8.50;;;;;13.25;52.85;100134.53;5099069;28;8829;-58
2023/06/15 02:15:38;;;;;;;;;11.50;10.00;;;;;13.28;53.31;100133.41;5099159;28;8858;-57
2023/06/15 02:18:12;;;;;;;;;9.00;9.00;;;;;13.30;52.96;100148.31;5098380;28;8833;-58
2023/06/15 02:20:40;;;;;;;;;10.25;9.00;;;;;13.36;53.43;100152.31;5099415;28;8865;-59
2023/06/15 02:23:08;;;;;;;;;9.50;8.00;;;;;13.42;53.17;100141.91;5098958;28;8967;-58
2023/06/15 02:25:35;;;;;;;;;9.75;9.50;;;;;13.45;53.26;100146.16;5098840;28;8821;-56
2023/06/15 02:28:03;;;;;;;;;6.25;6.00;;;;;13.44;53.03;100147.13;5098765;28;8824;-59
2023/06/15 02:30:31;;;;;;;;;6.50;6.50;;;;;13.43;53.23;100142.78;5098003;28;8837;-58
2023/06/15 02:33:00;;;;;;;;;9.25;8.00;;;;;13.42;52.63;100141.06;5098962;28;8837;-58
2023/06/15 02:35:28;;;;;;;;;7.75;7.50;;;;;13.40;53.27;100145.69;5098788;28;8844;-58
2023/06/15 02:37:56;;;;;;;;;9.50;9.00;;;;;13.36;53.35;100144.28;5098658;28;8860;-59
2023/06/15 02:40:24;;;;;;;;;9.00;7.00;;;;;13.33;53.44;100147.22;5099142;28;9490;-58
2023/06/15 02:42:51;;;;;;;;;8.75;6.50;;;;;13.30;52.74;100152.84;5099168;28;8864;-57
2023/06/15 02:45:20;;;;;;;;;8.00;8.00;;;;;13.28;53.51;100152.97;5098522;28;8874;-57
2023/06/15 02:47:48;;;;;;;;;9.75;9.00;;;;;13.25;53.22;100153.25;5098479;28;8845;-57
2023/06/15 02:50:17;;;;;;;;;6.00;6.00;;;;;13.23;53.21;100151.69;5098335;28;8874;-56
2023/06/15 02:52:46;;;;;;;;;10.50;9.75;;;;;13.18;53.59;100153.91;5097736;28;9532;-57
2023/06/15 02:55:14;;;;;;;;;8.00;6.75;;;;;13.14;53.85;100157.84;5098914;28;9578;-57
2023/06/15 02:57:42;;;;;;;;;7.00;7.00;;;;;13.08;53.80;100158.38;5098204;28;9531;-57
2023/06/15 03:00:13;;;;;;;;;8.50;7.00;;;;;13.04;53.80;100151.56;5098231;28;8846;-57
2023/06/15 03:02:42;;;;;;;;;8.00;6.50;;;;;12.99;53.94;100153.81;5098218;28;8841;-57
2023/06/15 03:05:11;;;;;;;;;6.50;6.50;;;;;12.94;53.61;100150.66;5098639;28;8853;-58
2023/06/15 03:07:40;;;;;;;;;6.00;6.00;;;;;12.89;53.87;100158.19;5097982;28;8829;-57
2023/06/15 03:10:08;;;;;;;;;8.00;6.50;;;;;12.82;54.39;100154.34;5097933;28;8845;-57
2023/06/15 03:12:36;;;;;;;;;10.50;8.00;;;;;12.78;54.34;100159.16;5097889;28;8967;-57
2023/06/15 03:15:03;;;;;;;;;5.00;4.00;;;;;12.76;54.22;100165.59;5097370;28;8851;-57
2023/06/15 03:17:32;;;;;;;;;9.00;9.00;;;;;12.73;54.52;100164.03;5097668;28;8841;-57
2023/06/15 03:20:00;;;;;;;;;10.00;9.00;;;;;12.72;54.49;100161.47;5098089;28;9515;-57
2023/06/15 03:22:28;;;;;;;;;6.00;6.00;;;;;12.71;54.33;100159.78;5097873;28;8861;-57
2023/06/15 03:24:55;;;;;;;;;7.00;5.50;;;;;12.71;54.24;100159.78;5097283;28;8847;-59
2023/06/15 03:27:23;;;;;;;;;8.00;6.75;;;;;12.70;54.15;100163.44;5097805;28;9545;-57
2023/06/15 03:29:51;;;;;;;;;10.00;9.00;;;;;12.70;54.12;100155.41;5097882;28;8861;-58
2023/06/15 03:32:20;;;;;;;;;9.75;9.75;;;;;12.69;54.42;100161.75;5097122;28;8889;-57
2023/06/15 03:34:48;;;;;;;;;9.00;8.50;;;;;12.69;54.38;100167.09;5097200;28;8830;-58
2023/06/15 03:37:15;;;;;;;;;9.50;9.00;;;;;12.67;54.53;100161.00;5096700;28;8868;-58
2023/06/15 03:39:43;;;;;;;;;7.00;7.00;;;;;12.66;54.55;100168.19;5097288;28;8849;-57
2023/06/15 03:42:11;;;;;;;;;9.00;9.00;;;;;12.72;54.55;100172.16;5097625;28;8845;-56
2023/06/15 03:44:38;;;;;;;;;9.50;9.00;;;;;12.86;54.19;100167.34;5097907;28;8969;-57
2023/06/15 03:47:06;;;;;;;;;12.50;10.00;;;;;12.90;54.16;100160.75;5096738;28;8821;-56
2023/06/15 03:49:34;;;;;;;;;6.00;4.50;;;;;12.90;54.11;100158.06;5097353;28;8863;-57
2023/06/15 03:52:02;;;;;;;;;9.00;7.00;;;;;12.88;54.48;100159.19;5097138;28;8852;-59
2023/06/15 03:54:30;;;;;;;;;7.25;6.50;;;;;12.84;54.53;100161.28;5097243;28;8841;-57
2023/06/15 03:56:57;;;;;;;;;7.50;7.50;;;;;12.81;54.41;100166.88;5096415;28;8833;-59
2023/06/15 03:59:25;;;;;;;;;4.00;3.75;;;;;12.78;54.32;100161.81;5096992;28;8833;-58
2023/06/15 04:01:53;;;;;;;;;8.00;6.75;;;;;12.76;54.59;100157.56;5097310;28;9540;-57
2023/06/15 04:04:20;;;;;;;;;7.00;7.00;;;;;12.73;54.56;100163.16;5096480;28;8848;-56
2023/06/15 04:06:52;;;;;;;;;8.00;8.00;;;;;12.76;54.20;100160.25;5096674;28;8856;-57
2023/06/15 04:09:21;;;;;;;;;6.00;6.00;;;;;12.78;54.27;100172.50;5097120;28;8852;-57
2023/06/15 04:11:48;;;;;;;;;9.25;7.00;;;;;12.82;54.45;100173.06;5096545;28;8845;-58
2023/06/15 04:14:18;;;;;;;;;10.00;9.00;;;;;12.92;53.96;100171.31;5096651;28;8879;-57
2023/06/15 04:16:45;;;;;;;;;10.00;10.00;;;;;13.00;53.84;100171.53;5096197;28;8856;-59
2023/06/15 04:19:14;;;;;;;;;8.00;8.00;;;;;13.07;53.79;100172.72;5096641;28;8861;-57
2023/06/15 04:21:41;;;;;;;;;12.25;9.00;;;;;13.15;53.83;100170.22;5096631;28;8849;-58
2023/06/15 04:24:09;;;;;;;;;11.00;9.25;;;;;13.21;53.67;100170.53;5096336;28;8855;-56
2023/06/15 04:26:37;;;;;;;;;9.00;8.50;;;;;13.31;53.15;100178.59;5096398;28;8833;-56
2023/06/15 04:29:04;;;;;;;;;9.75;9.50;;;;;13.40;53.22;100172.44;5095951;28;8829;-57
2023/06/15 04:31:33;;;;;;;;;10.00;9.50;;;;;13.52;53.34;100174.06;5095571;28;8848;-59
2023/06/15 04:34:04;;;;;;;;;11.50;10.00;;;;;13.63;53.32;100176.63;5094964;28;8845;-57
2023/06/15 04:36:34;;;;;;;;;7.00;7.00;;;;;13.74;53.29;100173.84;5095763;28;8849;-56
2023/06/15 04:39:02;;;;;;;;;7.00;7.00;;;;;13.86;52.39;100172.75;5095541;28;8979;-57
2023/06/15 04:41:31;;;;;;;;;11.50;9.00;;;;;13.96;52.48;100177.16;5095755;28;8871;-57
2023/06/15 04:43:58;;;;;;;;;10.00;9.25;;;;;14.06;52.50;100174.50;5096199;28;8912;-56
2023/06/15 04:46:27;;;;;;;;;8.50;7.00;;;;;14.15;51.85;100179.00;5096218;28;8853;-57
2023/06/15 04:48:56;;;;;;;;;12.50;11.00;;;;;14.23;51.98;100171.16;5095840;28;8829;-57
2023/06/15 04:51:24;;;;;;;;;10.00;9.75;;;;;14.31;51.81;100171.31;5095785;28;8837;-57
2023/06/15 04:53:51;;;;;;;;;6.00;5.00;;;;;14.37;51.91;100173.44;5095343;28;8829;-57
2023/06/15 04:56:21;;;;;;;;;10.50;9.50;;;;;14.43;51.80;100178.25;5095362;28;8849;-58
2023/06/15 04:58:48;;;;;;;;;5.00;5.00;;;;;14.50;51.78;100188.25;5095970;28;8847;-58
2023/06/15 05:01:16;;;;;;;;;12.25;12.25;;;;;14.56;51.85;100184.16;5095699;28;8829;-57
2023/06/15 05:03:44;;;;;;;;;9.25;9.25;;;;;14.64;51.77;100181.63;5095814;28;8837;-56
2023/06/15 05:06:12;;;;;;;;;10.50;9.00;;;;;14.73;51.77;100181.59;5095697;28;8968;-58
2023/06/15 05:08:40;;;;;;;;;12.00;10.50;;;;;14.80;51.68;100181.91;5094560;28;8852;-57
2023/06/15 05:11:08;;;;;;;;;11.50;9.50;;;;;14.88;51.88;100180.16;5095451;28;8837;-57
2023/06/15 05:13:35;;;;;;;;;13.75;12.75;;;;;15.00;51.47;100183.53;5094396;28;8894;-57
2023/06/15 05:16:03;;;;;;;;;10.50;10.50;;;;;15.17;51.08;100170.22;5095106;28;8848;-57
2023/06/15 05:18:31;;;;;;;;;13.25;12.00;;;;;15.40;50.95;100176.13;5095183;28;8951;-58
2023/06/15 05:20:59;;;;;;;;;12.25;11.50;;;;;15.66;50.28;100171.78;5095690;28;8837;-57
2023/06/15 05:23:28;;;;;;;;;12.00;11.00;;;;;15.90;50.42;100169.38;5095049;28;9487;-57
2023/06/15 05:25:56;;;;;;;;;12.25;10.50;;;;;16.11;49.97;100172.66;5094303;28;8849;-56
2023/06/15 05:28:24;;;;;;;;;13.50;12.00;;;;;16.28;49.40;100178.91;5094000;28;9114;-58
2023/06/15 05:30:54;;;;;;;;;12.00;12.00;;;;;16.44;49.68;100171.03;5093770;28;8918;-57
2023/06/15 05:33:22;;;;;;;;;11.25;11.00;;;;;16.56;49.45;100172.47;5094396;28;8837;-59
2023/06/15 05:35:50;;;;;;;;;11.75;11.75;;;;;16.69;49.40;100175.63;5094576;28;8845;-59
2023/06/15 05:38:20;;;;;;;;;11.00;11.00;;;;;16.82;49.06;100173.41;5094641;28;8844;-59
2023/06/15 05:40:48;;;;;;;;;12.50;12.00;;;;;16.97;48.67;100174.53;5094623;28;8833;-57
2023/06/15 05:43:16;;;;;;;;;11.00;10.00;;;;;17.13;48.89;100180.03;5092970;28;8871;-57
2023/06/15 05:45:44;;;;;;;;;12.25;10.50;;;;;17.27;48.59;100166.00;5092520;28;8844;-56
2023/06/15 05:48:12;;;;;;;;;12.25;12.00;;;;;17.38;48.81;100176.50;5093788;28;8928;-59
2023/06/15 05:50:39;;;;;;;;;12.75;12.50;;;;;17.45;48.39;100169.47;5093480;28;8876;-58
2023/06/15 05:53:07;;;;;;;;;13.00;12.75;;;;;17.49;48.74;100170.88;5093358;28;8852;-57
2023/06/15 05:55:35;;;;;;;;;11.25;11.25;;;;;17.59;48.59;100168.88;5093656;28;8860;-57
2023/06/15 05:58:03;;;;;;;;;12.50;12.50;;;;;17.70;48.06;100178.53;5093256;28;8837;-57
2023/06/15 06:00:31;;;;;;;;;14.00;12.50;;;;;17.78;47.98;100170.50;5092447;28;8925;-57
2023/06/15 06:03:01;;;;;;;;;12.50;12.00;;;;;17.91;48.29;100174.41;5091749;28;8865;-57
2023/06/15 06:05:30;;;;;;;;;11.50;11.50;;;;;18.00;48.39;100170.72;5092987;28;8868;-57
2023/06/15 06:07:57;;;;;;;;;15.75;15.75;;;;;18.08;48.46;100173.44;5092415;28;8979;-59
2023/06/15 06:10:25;;;;;;;;;13.00;13.00;;;;;18.17;48.35;100172.50;5092637;28;8882;-57
2023/06/15 06:12:53;;;;;;;;;17.25;16.00;;;;;18.26;48.51;100171.50;5091093;28;8845;-57
2023/06/15 06:15:21;;;;;;;;;12.00;10.00;;;;;18.34;48.45;100174.25;5090295;28;8837;-59
2023/06/15 06:17:50;;;;;;;;;13.50;12.75;;;;;18.40;48.16;100173.59;5090161;28;8849;-57
2023/06/15 06:20:36;;;;;;;;;17.00;17.00;;;;;18.55;48.38;100176.47;5091145;28;8864;-57
2023/06/15 06:23:04;;;;;;;;;11.50;11.00;;;;;18.69;48.08;100171.25;5091353;28;9673;-57
2023/06/15 06:25:32;;;;;;;;;17.00;16.00;;;;;18.83;47.71;100175.13;5093136;28;8845;-57
2023/06/15 06:28:00;;;;;;;;;13.50;13.50;;;;;18.97;47.92;100180.69;5095761;28;8845;-57
2023/06/15 06:30:28;;;;;;;;;10.40;9.20;;;;;19.11;47.65;100168.38;5096921;28;8896;-57
2023/06/15 06:32:56;;;;;;;;;13.75;11.25;;;;;19.27;47.68;100169.22;5097512;28;8912;-57
2023/06/15 06:35:28;;;;;;;;;12.60;12.20;;;;;19.39;47.87;100170.53;5097653;28;8873;-58
2023/06/15 06:37:56;;;;;;;;;15.80;15.80;;;;;19.53;47.24;100172.53;5097851;28;8975;-58
2023/06/15 06:40:25;;;;;;;;;14.60;14.60;;;;;19.65;47.52;100181.94;5096661;28;8994;-57
2023/06/15 06:42:53;;;;;;;;;17.40;15.20;;;;;19.79;46.85;100183.09;5096055;28;8860;-56
2023/06/15 06:45:21;;;;;;;;;18.00;15.20;;;;;19.88;47.50;100177.47;5096123;28;8903;-57
2023/06/15 06:47:50;;;;;;;;;13.80;13.40;;;;;19.99;47.37;100178.94;5096562;28;9625;-56
2023/06/15 06:50:18;;;;;;;;;14.20;13.00;;;;;20.07;46.65;100179.78;5096311;28;8888;-57
2023/06/15 06:52:46;;;;;;;;;6.60;5.20;;;;;20.16;47.08;100178.72;5096243;28;8849;-57
2023/06/15 06:55:14;;;;;;;;;10.40;10.40;;;;;20.26;47.18;100186.63;5096443;28;8841;-57
2023/06/15 06:57:42;;;;;;;;;14.00;13.60;;;;;20.33;47.21;100185.72;5095495;28;8967;-57
2023/06/15 07:00:10;;;;;;;;;17.80;16.80;;;;;20.40;47.05;100181.28;5096141;28;8946;-57
2023/06/15 07:02:38;;;;;;;;;11.80;11.80;;;;;20.44;47.00;100179.06;5095409;28;8869;-57
2023/06/15 07:05:06;;;;;;;;;15.40;14.00;;;;;20.50;47.02;100187.31;5096631;28;8853;-57
2023/06/15 07:07:35;;;;;;;;;16.60;15.40;;;;;20.61;47.29;100189.59;5096009;28;8829;-57
2023/06/15 07:10:03;;;;;;;;;15.80;15.80;;;;;20.75;47.42;100194.25;5095929;28;8979;-57
2023/06/15 07:12:31;;;;;;;;;13.80;13.60;;;;;20.88;47.18;100186.41;5095797;28;8861;-58
2023/06/15 07:14:59;;;;;;;;;18.00;17.40;;;;;21.02;46.58;100180.19;5096510;28;8841;-59
2023/06/15 07:17:27;;;;;;;;;12.40;11.40;;;;;21.13;46.73;100183.31;5096111;28;8935;-59
2023/06/15 07:19:55;;;;;;;;;11.40;11.40;;;;;21.28;46.65;100183.31;5095406;28;9785;-57
2023/06/15 07:22:23;;;;;;;;;13.00;12.00;;;;;21.42;46.54;100179.78;5095776;28;8880;-58
2023/06/15 07:24:52;;;;;;;;;12.00;11.60;;;;;21.52;46.42;100181.22;5095976;28;8856;-58
2023/06/15 07:27:20;;;;;;;;;10.60;10.20;;;;;21.64;46.33;100184.28;5095941;28;8836;-58
2023/06/15 07:29:48;;;;;;;;;12.40;12.40;;;;;21.74;46.18;100169.47;5095952;28;8861;-57
2023/06/15 07:32:16;;;;;;;;;11.60;11.60;;;;;21.82;46.12;100177.50;5095611;28;8861;-58
2023/06/15 07:34:44;;;;;;;;;10.40;10.00;;;;;21.89;45.77;100169.44;5095671;28;8934;-58
2023/06/15 07:37:13;;;;;;;;;11.00;9.40;;;;;21.95;45.84;100183.09;5095151;28;8859;-58
2023/06/15 07:39:41;;;;;;;;;14.20;13.40;;;;;22.04;46.15;100181.97;5096051;28;8859;-58
2023/06/15 07:42:09;;;;;;;;;8.80;8.80;;;;;22.14;45.40;100178.94;5095489;28;8849;-57
2023/06/15 07:44:37;;;;;;;;;13.60;9.00;;;;;22.24;45.59;100182.22;5095507;28;8876;-58
2023/06/15 07:47:06;;;;;;;;;13.60;11.60;;;;;22.32;45.32;100182.91;5094334;28;9541;-58
2023/06/15 07:49:34;;;;;;;;;7.80;7.80;;;;;22.43;45.15;100177.03;5094854;28;8926;-58
2023/06/15 07:52:13;;;;;;;;;8.00;8.00;;;;;22.53;44.98;100177.56;5095386;28;8832;-58
2023/06/15 07:54:41;;;;;;;;;8.60;8.40;;;;;22.62;45.07;100183.72;5095124;28;8841;-58
2023/06/15 07:57:10;;;;;;;;;11.00;9.00;;;;;22.73;44.63;100181.34;5095604;28;8942;-58
2023/06/15 07:59:38;;;;;;;;;9.20;9.00;;;;;22.82;45.09;100179.31;5096028;28;8840;-58
2023/06/15 08:02:06;;;;;;;;;9.00;8.40;;;;;22.91;44.43;100170.84;5095719;28;8841;-58
2023/06/15 08:04:34;;;;;;;;;6.00;6.00;;;;;23.03;44.13;100173.88;5095820;28;8848;-57
2023/06/15 08:07:02;;;;;;;;;11.20;9.80;;;;;23.14;44.41;100176.91;5095516;28;8841;-58
2023/06/15 08:09:30;;;;;;;;;10.00;8.80;;;;;23.24;43.95;100182.03;5095351;28;8959;-57
2023/06/15 08:11:59;;;;;;;;;8.80;8.00;;;;;23.38;43.81;100167.50;5094688;28;8836;-58
2023/06/15 08:14:28;;;;;;;;;9.00;9.00;;;;;23.51;44.00;100168.44;5095021;28;8845;-58
2023/06/15 08:16:56;;;;;;;;;8.80;8.80;;;;;23.63;43.56;100171.44;5094599;28;9792;-61
2023/06/15 08:19:25;;;;;;;;;9.80;9.00;;;;;23.70;43.55;100166.88;5094480;28;8882;-59
2023/06/15 08:21:53;;;;;;;;;8.00;8.00;;;;;23.77;43.30;100168.59;5095221;28;8849;-59
2023/06/15 08:24:21;;;;;;;;;8.40;7.80;;;;;23.87;43.43;100162.81;5094693;28;8871;-58
2023/06/15 08:26:49;;;;;;;;;7.80;7.80;;;;;23.98;42.57;100164.97;5094878;28;8865;-58
2023/06/15 08:29:19;;;;;;;;;11.60;9.00;;;;;24.07;42.60;100166.47;5094296;28;8839;-61
2023/06/15 08:31:51;;;;;;;;;8.80;7.60;;;;;24.18;42.45;100166.72;5095071;28;8849;-60
2023/06/15 08:34:19;;;;;;;;;9.00;8.60;;;;;24.32;42.01;100162.16;5094222;28;8995;-60
2023/06/15 08:36:49;;;;;;;;;6.00;6.00;;;;;24.44;42.42;100160.53;5093778;28;8853;-60
2023/06/15 08:39:17;;;;;;;;;9.60;9.40;;;;;24.59;42.06;100170.22;5095101;28;8864;-58
2023/06/15 08:41:45;;;;;;;;;9.40;9.00;;;;;24.75;41.49;100163.56;5094903;28;8837;-59
2023/06/15 08:44:13;;;;;;;;;10.40;9.20;;;;;24.87;41.73;100161.91;5095668;28;9519;-61
2023/06/15 08:46:42;;;;;;;;;9.60;9.40;;;;;24.99;41.04;100161.09;5094093;28;8841;-59
2023/06/15 08:49:10;;;;;;;;;9.00;9.00;;;;;25.10;41.44;100165.06;5092928;28;8881;-59
2023/06/15 08:51:38;;;;;;;;;9.00;8.20;;;;;25.20;41.08;100169.06;5092700;28;8841;-59
2023/06/15 08:54:08;;;;;;;;;9.20;8.20;;;;;25.30;40.85;100165.94;5093721;28;8934;-58
2023/06/15 08:56:38;;;;;;;;;7.00;6.80;;;;;25.40;40.65;100160.91;5093451;28;8902;-58
2023/06/15 08:59:06;;;;;;;;;8.60;7.60;;;;;25.52;40.79;100158.13;5094232;28;8925;-59
2023/06/15 09:01:39;;;;;;;;;5.40;5.40;;;;;25.64;40.20;100159.16;5094446;28;8917;-59
2023/06/15 09:04:07;;;;;;;;;9.20;8.40;;;;;25.72;40.02;100158.09;5094353;28;8949;-60
2023/06/15 09:06:35;;;;;;;;;7.60;7.60;;;;;25.83;40.37;100161.03;5094748;28;8837;-59
2023/06/15 09:09:04;;;;;;;;;7.20;7.20;;;;;25.94;39.58;100159.53;5094098;28;8880;-59
2023/06/15 09:11:32;;;;;;;;;7.20;6.80;;;;;26.00;39.88;100156.78;5093630;28;8837;-59
2023/06/15 09:14:00;;;;;;;;;7.00;6.00;;;;;26.07;39.73;100154.03;5093686;28;8857;-59
2023/06/15 09:16:28;;;;;;;;;7.80;7.80;;;;;26.15;39.13;100151.06;5091855;28;8849;-59
2023/06/15 09:18:57;;;;;;;;;7.00;7.00;;;;;26.26;39.44;100156.66;5093122;28;8849;-60
2023/06/15 09:21:26;;;;;;;;;10.80;10.80;;;;;26.36;38.98;100162.53;5093268;28;8829;-59
2023/06/15 09:23:54;;;;;;;;;9.00;9.00;;;;;26.44;39.06;100151.34;5092611;28;8853;-59
2023/06/15 09:26:23;;;;;;;;;8.00;7.80;;;;;26.54;38.58;100151.72;5093749;28;8864;-59
2023/06/15 09:28:52;;;;;;;;;9.60;9.60;;;;;26.64;38.86;100154.81;5093676;28;8841;-61
2023/06/15 09:31:20;;;;;;;;;10.00;9.00;;;;;26.75;38.50;100145.91;5093244;28;8888;-62
2023/06/15 09:33:48;;;;;;;;;9.20;9.20;;;;;26.90;38.39;100149.16;5093361;28;8923;-61
2023/06/15 09:36:19;;;;;;;;;8.00;8.00;;;;;27.01;38.33;100151.19;5093021;28;8867;-61
2023/06/15 09:38:48;;;;;;;;;9.80;8.60;;;;;26.96;38.17;100145.56;5093262;28;8853;-59
2023/06/15 09:41:16;;;;;;;;;10.20;10.20;;;;;26.94;38.54;100142.19;5093649;28;8825;-60
2023/06/15 09:43:44;;;;;;;;;8.80;8.40;;;;;26.99;37.89;100147.84;5093021;28;8864;-59
2023/06/15 09:46:12;;;;;;;;;11.60;9.00;;;;;27.09;38.50;100141.88;5092730;28;8853;-60
2023/06/15 09:48:40;;;;;;;;;7.20;7.00;;;;;27.24;37.96;100151.44;5093693;28;8845;-60
2023/06/15 09:51:08;;;;;;;;;8.00;8.00;;;;;27.33;37.48;100139.13;5094887;28;8864;-60
2023/06/15 09:53:37;;;;;;;;;8.00;8.00;;;;;27.15;38.31;100139.09;5093929;28;8841;-59
2023/06/15 09:56:05;;;;;;;;;11.80;11.60;;;;;27.04;37.97;100147.16;5094637;28;8830;-60
2023/06/15 09:58:53;;;;;;;;;7.80;7.80;;;;;27.21;37.93;100145.56;5093538;28;8860;-60
2023/06/15 10:01:22;;;;;;;;;9.00;8.40;;;;;27.39;37.66;100140.97;5096354;28;8841;-58
2023/06/15 10:03:52;;;;;;;;;9.00;8.00;;;;;27.71;36.92;100137.06;5098248;28;8885;-59
2023/06/15 10:06:20;;;;;;;;;8.60;8.00;;;;;28.04;36.42;100137.56;5096967;28;8848;-59
2023/06/15 10:08:51;;;;;;;;;9.80;9.40;;;;;28.36;35.74;100135.50;5096912;28;8867;-59
2023/06/15 10:11:19;;;;;;;;;5.20;4.20;;;;;28.71;35.36;100131.81;5096965;28;8853;-58
2023/06/15 10:13:47;;;;;;;;;9.80;9.80;;;;;29.05;34.65;100130.25;5096436;28;8987;-59
2023/06/15 10:16:16;;;;;;;;;9.20;8.80;;;;;29.41;33.97;100135.53;5097128;28;8869;-60
2023/06/15 10:18:44;;;;;;;;;7.80;7.00;;;;;29.79;34.11;100131.22;5096574;28;8861;-59
2023/06/15 10:21:12;;;;;;;;;8.80;8.20;;;;;30.20;33.90;100131.03;5098066;28;8865;-60
2023/06/15 10:23:43;;;;;;;;;10.60;9.80;;;;;30.59;32.90;100130.16;5096940;28;8933;-59
2023/06/15 10:26:11;;;;;;;;;10.20;9.40;;;;;30.96;32.80;100126.72;5097402;28;8980;-59
2023/06/15 10:28:42;;;;;;;;;3.60;3.40;;;;;31.19;32.41;100125.78;5097464;28;8841;-59
2023/06/15 10:31:10;;;;;;;;;9.80;9.00;;;;;30.90;32.86;100122.22;5096134;28;8860;-60
2023/06/15 10:33:37;;;;;;;;;7.80;6.40;;;;;31.10;32.63;100128.06;5096361;28;8949;-60
2023/06/15 10:36:05;;;;;;;;;5.00;5.00;;;;;31.58;31.90;100124.72;5096476;28;8841;-60
2023/06/15 10:38:34;;;;;;;;;6.40;6.40;;;;;32.11;31.50;100123.00;5097130;28;8879;-60
2023/06/15 10:41:05;;;;;;;;;8.20;7.40;;;;;32.64;30.46;100127.78;5097333;28;8845;-60
2023/06/15 10:43:32;;;;;;;;;7.00;7.00;;;;;32.97;30.66;100116.53;5095991;28;8902;-60
2023/06/15 10:46:02;;;;;;;;;6.40;6.40;;;;;33.27;29.99;100116.81;5096627;28;8867;-59
2023/06/15 10:48:30;;;;;;;;;6.00;6.00;;;;;33.59;29.94;100123.13;5096273;28;8856;-61
2023/06/15 10:50:58;;;;;;;;;8.40;8.00;;;;;33.94;28.66;100123.34;5096930;28;9563;-61
2023/06/15 10:53:26;;;;;;;;;7.80;7.80;;;;;34.14;29.33;100120.69;5096203;28;8841;-61
2023/06/15 10:55:55;;;;;;;;;8.60;7.60;;;;;34.21;29.07;100115.72;5096365;28;8845;-61
2023/06/15 10:58:24;;;;;;;;;9.20;8.00;;;;;34.42;29.56;100117.50;5096410;28;8849;-61
2023/06/15 11:00:52;;;;;;;;;10.00;9.00;;;;;34.34;29.48;100115.25;5096245;28;8861;-60
2023/06/15 11:03:22;;;;;;;;;8.00;7.60;;;;;33.31;30.58;100126.25;5096750;28;8837;-60
2023/06/15 11:05:50;;;;;;;;;8.80;8.00;;;;;32.28;31.35;100128.47;5096854;28;8849;-60
2023/06/15 11:08:18;;;;;;;;;8.60;8.60;;;;;31.30;32.56;100131.19;5095971;28;8833;-60
2023/06/15 11:10:46;;;;;;;;;10.00;10.00;;;;;30.67;33.25;100115.19;5096425;28;8849;-61
2023/06/15 11:13:14;;;;;;;;;8.40;8.00;;;;;31.00;32.63;100124.31;5095281;28;8855;-60
2023/06/15 11:15:43;;;;;;;;;12.80;11.80;;;;;31.13;32.38;100124.00;5095599;28;8833;-61
2023/06/15 11:18:11;;;;;;;;;11.00;10.20;;;;;30.91;32.81;100131.31;5095763;28;8849;-59
2023/06/15 11:20:39;;;;;;;;;10.80;10.20;;;;;30.30;33.59;100135.88;5095776;28;8958;-60
2023/06/15 11:23:09;;;;;;;;;7.00;6.00;;;;;29.60;34.02;100134.34;5095712;28;8841;-59
2023/06/15 11:25:38;;;;;;;;;11.80;11.20;;;;;28.99;34.98;100136.66;5095685;28;8892;-60
2023/06/15 11:28:07;;;;;;;;;10.00;9.60;;;;;28.46;35.82;100142.06;5095041;28;8849;-58
2023/06/15 11:30:39;;;;;;;;;12.00;12.00;;;;;28.01;36.30;100148.13;5094719;28;8833;-60
2023/06/15 11:33:07;;;;;;;;;11.60;11.00;;;;;27.66;36.85;100139.66;5094865;28;8841;-61
2023/06/15 11:35:35;;;;;;;;;10.00;9.20;;;;;27.38;36.77;100138.50;5094777;28;8852;-61